Cherokee Observed Data For Previous 48 Hours

Caption
Day and Hour Reservoir Elevation (behind dam)* Tailwater Elevation (below dam)* Average Hourly Discharge*
8/20/2018 2 AM EDT 1,070.17 921.06 0
8/20/2018 3 AM EDT 1,070.18 921.06 0
8/20/2018 4 AM EDT 1,070.19 921.41 36
8/20/2018 5 AM EDT 1,070.21 921.60 2,169
8/20/2018 6 AM EDT 1,070.23 921.07 0
8/20/2018 7 AM EDT 1,070.25 921.06 0
8/20/2018 8 AM EDT 1,070.27 921.06 0
8/20/2018 9 AM EDT 1,070.29 921.06 0
8/20/2018 10 AM EDT 1,070.32 921.41 36
8/20/2018 11 AM EDT 1,070.32 923.71 3,641
8/20/2018 12 PM EDT 1,070.33 923.75 3,650
8/20/2018 1 PM EDT 1,070.32 923.79 3,675
8/20/2018 2 PM EDT 1,070.37 921.14 159
8/20/2018 3 PM EDT 1,070.37 921.06 0
8/20/2018 4 PM EDT 1,070.38 921.06 0
8/20/2018 5 PM EDT 1,070.40 921.06 0
8/20/2018 6 PM EDT 1,070.41 921.39 36
8/20/2018 7 PM EDT 1,070.44 921.59 2,154
8/20/2018 8 PM EDT 1,070.45 921.07 0
8/20/2018 9 PM EDT 1,070.47 921.06 0
8/20/2018 10 PM EDT 1,070.48 921.06 0
8/20/2018 11 PM EDT 1,070.50 921.06 0
8/21/2018 12 AM EDT 1,070.51 921.41 37
8/21/2018 1 AM EDT 1,070.52 921.59 2,150
8/21/2018 2 AM EDT 1,070.54 921.07 0
8/21/2018 3 AM EDT 1,070.56 921.06 0
8/21/2018 4 AM EDT 1,070.56 921.06 0
8/21/2018 5 AM EDT 1,070.57 921.07 0
8/21/2018 6 AM EDT 1,070.57 921.43 39
8/21/2018 7 AM EDT 1,070.60 921.58 2,152
8/21/2018 8 AM EDT 1,070.61 921.06 0
8/21/2018 9 AM EDT 1,070.61 921.06 0
8/21/2018 10 AM EDT 1,070.64 921.06 0
8/21/2018 11 AM EDT 1,070.65 921.06 0
8/21/2018 12 PM EDT 1,070.67 921.39 38
8/21/2018 1 PM EDT 1,070.68 921.59 2,160
8/21/2018 2 PM EDT 1,070.67 921.08 29
8/21/2018 3 PM EDT 1,070.66 921.07 0
8/21/2018 4 PM EDT 1,070.68 921.08 0
8/21/2018 5 PM EDT 1,070.69 921.08 0
8/21/2018 6 PM EDT 1,070.71 921.45 44
8/21/2018 7 PM EDT 1,070.76 921.60 2,166
8/21/2018 8 PM EDT 1,070.77 921.08 0
8/21/2018 9 PM EDT 1,070.79 921.07 0
8/21/2018 10 PM EDT 1,070.79 921.07 0
8/21/2018 11 PM EDT 1,070.78 921.08 0
8/22/2018 12 AM EDT 1,070.79 921.41 38
8/22/2018 1 AM EDT 1,070.79 921.60 2,153
8/22/2018 2 AM EDT 1,070.81 921.08 0
8/22/2018 3 AM EDT 1,070.82 921.07 0

Elevations are in feet above sea level. Discharges are in cubic feet per second and are reported at the end of the hour.